Time;durP1;ratioP1;P1;durP2;ratioP2;P2;SDS_P1;SDS_P2;PMS_P1;PMS_P2;Temp;Humidity;BMP_temperature;BMP_pressure;BME280_temperature;BME280_humidity;BME280_pressure;Samples;Min_cycle;Max_cycle;Signal;HPM_P1;HPM_P2
2023/08/03 00:04:28;;;;;;;9.30;2.40;;;;;;;19.81;43.40;98235.03;10351466;28;20621;-69
2023/08/03 00:09:30;;;;;;;4.27;2.00;;;;;;;20.31;42.87;98243.03;10351592;28;20325;-69
2023/08/03 00:14:32;;;;;;;5.72;1.90;;;;;;;20.40;42.85;98221.50;10357969;28;20693;-69
2023/08/03 00:19:34;;;;;;;8.32;2.00;;;;;;;20.80;42.41;98184.09;10358315;28;20259;-69
2023/08/03 00:24:36;;;;;;;6.65;2.00;;;;;;;19.89;43.23;98209.16;10357916;28;20237;-69
2023/08/03 00:29:37;;;;;;;7.20;2.08;;;;;;;20.59;43.00;98178.88;10356923;28;20320;-68
2023/08/03 00:34:39;;;;;;;4.90;1.52;;;;;;;20.07;43.22;98235.59;10355002;28;20244;-69
2023/08/03 00:39:41;;;;;;;4.13;2.00;;;;;;;20.06;43.53;98181.63;10350553;28;20237;-69
2023/08/03 00:44:43;;;;;;;4.28;2.05;;;;;;;19.07;44.53;98232.22;10356629;28;20253;-69
2023/08/03 00:49:44;;;;;;;4.57;1.73;;;;;;;19.93;43.36;98200.19;10351879;28;20459;-69
2023/08/03 00:54:46;;;;;;;5.47;1.77;;;;;;;20.29;42.90;98177.31;10357912;28;20327;-70
2023/08/03 00:59:48;;;;;;;3.28;1.90;;;;;;;20.10;43.41;98204.38;10353814;28;20237;-69
2023/08/03 01:04:50;;;;;;;3.92;1.65;;;;;;;20.44;42.87;98192.66;10356929;28;20236;-69
2023/08/03 01:09:52;;;;;;;3.75;1.80;;;;;;;19.75;43.79;98201.69;10354914;28;20229;-69
2023/08/03 01:14:53;;;;;;;7.53;2.22;;;;;;;19.95;43.46;98225.13;10351768;28;20620;-70
2023/08/03 01:19:55;;;;;;;4.50;1.30;;;;;;;19.81;43.60;98207.88;10355933;28;20232;-69
2023/08/03 01:24:58;;;;;;;6.18;1.67;;;;;;;20.16;42.73;98224.13;10356955;28;20235;-69
2023/08/03 01:29:59;;;;;;;2.53;1.65;;;;;;;19.29;43.24;98256.22;10352602;28;20233;-69
2023/08/03 01:35:01;;;;;;;5.50;1.90;;;;;;;20.01;42.72;98214.22;10357413;28;20650;-69
2023/08/03 01:40:03;;;;;;;3.22;1.60;;;;;;;19.46;43.27;98231.44;10355219;28;20720;-69
2023/08/03 01:45:06;;;;;;;3.87;1.70;;;;;;;20.37;42.57;98173.97;10352674;28;20619;-69
2023/08/03 01:50:08;;;;;;;4.30;1.60;;;;;;;18.77;43.58;98261.00;10349419;28;20245;-69
2023/08/03 01:55:10;;;;;;;3.08;2.10;;;;;;;19.82;42.69;98168.78;10353077;28;20523;-69
2023/08/03 02:00:12;;;;;;;4.97;1.98;;;;;;;20.38;42.39;98191.06;10350213;28;20235;-69
2023/08/03 02:05:13;;;;;;;2.53;2.27;;;;;;;19.73;43.24;98208.50;10348460;28;20230;-69
2023/08/03 02:10:15;;;;;;;3.30;1.80;;;;;;;17.43;46.99;98222.38;10350521;28;20316;-69
2023/08/03 02:15:17;;;;;;;3.40;1.50;;;;;;;17.95;47.55;98211.59;10344794;28;20352;-69
2023/08/03 02:20:19;;;;;;;4.00;1.50;;;;;;;17.82;49.77;98165.06;10346893;28;20240;-69
2023/08/03 02:25:23;;;;;;;2.03;1.33;;;;;;;18.26;48.79;98153.63;10352250;28;20331;-69
2023/08/03 02:30:25;;;;;;;3.03;1.43;;;;;;;18.39;47.66;98203.72;10343473;28;20357;-69
2023/08/03 02:35:27;;;;;;;1.77;1.40;;;;;;;19.07;47.45;98128.41;10347671;28;20385;-69
2023/08/03 02:40:29;;;;;;;4.07;1.97;;;;;;;18.25;48.26;98227.81;10349612;28;20287;-69
2023/08/03 02:45:31;;;;;;;2.27;1.63;;;;;;;19.34;46.74;98203.88;10348458;28;20229;-69
2023/08/03 02:50:33;;;;;;;3.30;1.53;;;;;;;19.56;46.06;98214.31;10349097;28;20243;-69
2023/08/03 02:55:35;;;;;;;2.13;1.57;;;;;;;18.82;47.01;98203.28;10349215;28;20595;-69
2023/08/03 03:00:36;;;;;;;2.23;1.60;;;;;;;19.32;46.18;98246.72;10347137;28;20233;-69
2023/08/03 03:05:39;;;;;;;5.90;1.70;;;;;;;18.87;46.98;98237.69;10347385;28;20606;-69
2023/08/03 03:10:41;;;;;;;2.50;1.60;;;;;;;19.89;45.76;98168.44;10345625;28;20260;-69
2023/08/03 03:15:43;;;;;;;5.23;1.70;;;;;;;19.42;46.68;98188.88;10348971;28;20241;-70
2023/08/03 03:20:44;;;;;;;5.60;1.80;;;;;;;18.80;46.99;98217.13;10346257;28;20257;-69
2023/08/03 03:25:46;;;;;;;2.53;1.50;;;;;;;19.23;46.53;98208.53;10345590;28;20229;-69
2023/08/03 03:30:48;;;;;;;3.00;1.30;;;;;;;18.87;46.84;98235.78;10343809;28;20320;-69
2023/08/03 03:35:49;;;;;;;6.70;1.50;;;;;;;18.62;45.93;98321.50;10345733;28;20718;-69
2023/08/03 03:40:51;;;;;;;3.07;1.23;;;;;;;19.09;46.33;98243.56;10342277;28;20368;-69
2023/08/03 03:45:53;;;;;;;3.90;1.50;;;;;;;19.11;46.48;98210.78;10352780;28;20237;-69
2023/08/03 03:50:55;;;;;;;2.67;1.80;;;;;;;18.62;46.14;98296.28;10351686;28;20577;-69
2023/08/03 03:55:57;;;;;;;3.33;1.50;;;;;;;20.25;44.81;98203.44;10356150;28;20667;-70
2023/08/03 04:00:58;;;;;;;4.70;1.70;;;;;;;19.01;46.75;98265.84;10352371;28;20229;-69
2023/08/03 04:06:00;;;;;;;2.63;1.53;;;;;;;17.37;49.54;98347.78;10351109;28;20233;-70
2023/08/03 04:11:02;;;;;;;1.63;1.30;;;;;;;16.70;51.56;98336.63;10353223;28;20292;-69
2023/08/03 04:16:04;;;;;;;1.97;1.27;;;;;;;17.46;50.62;98302.94;10353440;28;20260;-69
2023/08/03 04:21:06;;;;;;;2.57;1.67;;;;;;;17.81;50.10;98289.78;10348712;28;20249;-70
2023/08/03 04:26:08;;;;;;;2.77;1.77;;;;;;;18.27;49.76;98295.19;10351111;28;20233;-71
2023/08/03 04:31:10;;;;;;;1.60;1.47;;;;;;;18.64;49.07;98256.19;10352172;28;20245;-70
2023/08/03 04:36:12;;;;;;;2.73;1.60;;;;;;;19.07;48.47;98239.53;10355642;28;20759;-70
2023/08/03 04:41:16;;;;;;;1.93;1.47;;;;;;;18.50;48.12;98314.72;10351813;28;20748;-70
2023/08/03 04:46:18;;;;;;;1.40;1.30;;;;;;;18.32;47.63;98357.53;10349206;28;20315;-70
2023/08/03 04:51:20;;;;;;;2.50;1.20;;;;;;;18.33;47.74;98288.75;10353657;28;20331;-70
2023/08/03 04:56:21;;;;;;;1.87;1.50;;;;;;;18.98;46.09;98304.34;10351332;28;20688;-70
2023/08/03 05:05:19;;;;;;;2.93;1.60;;;;;;;15.57;53.43;98272.75;10443732;27;20855;-69
2023/08/03 05:10:21;;;;;;;3.03;1.47;;;;;;;15.77;52.69;98288.31;10339047;28;20249;-70
2023/08/03 05:15:23;;;;;;;3.07;1.70;;;;;;;15.85;52.86;98266.28;10310619;28;20241;-70
2023/08/03 05:20:25;;;;;;;3.23;1.93;;;;;;;16.06;51.49;98283.44;10314975;28;20724;-70
2023/08/03 05:25:26;;;;;;;4.13;1.80;;;;;;;16.28;50.96;98329.28;10338303;28;20400;-70
2023/08/03 05:30:28;;;;;;;4.27;1.60;;;;;;;16.34;50.96;98347.13;10343395;28;20229;-70
2023/08/03 05:35:31;;;;;;;2.43;1.50;;;;;;;15.94;51.08;98383.44;10343581;28;20229;-70
2023/08/03 05:40:33;;;;;;;1.63;1.40;;;;;;;16.16;50.59;98367.22;10342065;28;20237;-69
2023/08/03 05:45:34;;;;;;;5.50;1.60;;;;;;;15.81;51.08;98453.97;10344917;28;20242;-69
2023/08/03 05:50:39;;;;;;;4.13;1.70;;;;;;;16.50;51.25;98352.66;10343716;28;20283;-70
2023/08/03 05:55:42;;;;;;;2.43;1.60;;;;;;;16.36;53.10;98398.16;10341916;28;20276;-70
2023/08/03 06:00:52;;;;;;;2.83;1.40;;;;;;;15.65;55.38;98402.53;10340247;28;20333;-70
2023/08/03 06:05:55;;;;;;;2.37;1.60;;;;;;;15.94;55.45;98386.13;10345761;28;20229;-70
2023/08/03 06:11:01;;;;;;;3.57;1.60;;;;;;;16.41;55.12;98330.72;10341656;28;20225;-70
2023/08/03 06:16:13;;;;;;;2.70;1.60;;;;;;;16.76;53.46;98342.84;10319081;28;20237;-70
2023/08/03 06:21:17;;;;;;;2.60;1.57;;;;;;;15.77;53.71;98472.53;10315144;28;20812;-69
2023/08/03 06:26:19;;;;;;;2.93;1.50;;;;;;;16.58;52.70;98400.78;10309420;28;20229;-70
2023/08/03 06:31:35;;;;;;;1.60;1.50;;;;;;;16.47;53.20;98429.59;10315779;28;20699;-70
2023/08/03 06:36:37;;;;;;;1.87;1.40;;;;;;;16.02;53.91;98418.03;10315654;28;20245;-70
2023/08/03 06:41:39;;;;;;;2.23;1.33;;;;;;;16.01;53.53;98456.91;10314340;28;20246;-70
2023/08/03 06:46:40;;;;;;;3.53;1.20;;;;;;;16.04;52.87;98490.66;10316678;28;20237;-69
2023/08/03 06:51:42;;;;;;;3.03;1.13;;;;;;;15.82;52.85;98512.22;10315337;28;20319;-69
2023/08/03 06:56:44;;;;;;;3.20;1.60;;;;;;;16.35;51.82;98451.34;10316881;28;20233;-69
2023/08/03 07:01:48;;;;;;;2.27;1.70;;;;;;;16.14;51.54;98509.66;10314290;28;20241;-70
2023/08/03 07:06:50;;;;;;;4.53;1.80;;;;;;;15.83;51.54;98532.75;10314317;28;20229;-69
2023/08/03 07:11:52;;;;;;;2.30;1.50;;;;;;;15.53;51.31;98574.38;10313677;28;20250;-69
2023/08/03 07:16:53;;;;;;;3.63;1.70;;;;;;;17.13;49.48;98433.91;10313058;28;20226;-69
2023/08/03 07:21:55;;;;;;;2.13;1.53;;;;;;;16.32;50.74;98468.06;10311427;28;20393;-69
2023/08/03 07:26:57;;;;;;;4.60;1.80;;;;;;;16.61;49.83;98501.00;10309333;28;20304;-69
2023/08/03 07:31:59;;;;;;;2.60;1.40;;;;;;;16.29;49.71;98541.44;10308105;28;20238;-69
2023/08/03 07:37:01;;;;;;;4.87;2.10;;;;;;;16.16;50.08;98531.81;10311847;28;20230;-70
2023/08/03 07:42:03;;;;;;;2.87;1.80;;;;;;;16.49;51.19;98523.84;10310805;28;20229;-69
2023/08/03 07:47:05;;;;;;;5.43;2.07;;;;;;;15.68;54.08;98569.22;10313167;28;20234;-70
2023/08/03 07:52:07;;;;;;;4.13;1.93;;;;;;;15.31;56.55;98577.00;10312837;28;20240;-69
2023/08/03 07:57:15;;;;;;;5.67;1.90;;;;;;;16.24;56.43;98461.19;10310162;28;20253;-69
2023/08/03 08:02:19;;;;;;;3.13;1.83;;;;;;;16.00;57.12;98513.81;10311940;28;20755;-69
2023/08/03 08:07:21;;;;;;;2.93;1.80;;;;;;;15.38;58.86;98522.91;10312411;28;20232;-69
2023/08/03 08:12:23;;;;;;;3.97;1.90;;;;;;;16.17;57.54;98470.56;10311701;28;20230;-69
2023/08/03 08:17:25;;;;;;;4.20;2.10;;;;;;;15.92;57.57;98504.25;10307787;28;20720;-69
2023/08/03 08:22:27;;;;;;;2.37;2.03;;;;;;;15.64;58.23;98546.53;10310261;28;20241;-69
2023/08/03 08:27:29;;;;;;;2.97;2.00;;;;;;;15.43;57.87;98612.75;10312836;28;20226;-69
2023/08/03 08:32:32;;;;;;;1.70;1.60;;;;;;;16.58;56.40;98560.94;10313970;28;20244;-69
2023/08/03 08:37:34;;;;;;;4.13;2.17;;;;;;;15.79;56.81;98589.09;10308182;28;20249;-70
2023/08/03 08:42:35;;;;;;;3.70;1.43;;;;;;;16.85;55.25;98548.50;10312503;28;21595;-69
2023/08/03 08:47:37;;;;;;;3.03;2.10;;;;;;;17.25;54.22;98604.00;10309913;28;20612;-69
2023/08/03 08:52:44;;;;;;;2.40;1.83;;;;;;;17.85;53.21;98577.66;10308386;28;20238;-69
2023/08/03 08:57:49;;;;;;;3.40;1.60;;;;;;;17.14;54.46;98632.81;10310065;28;20317;-69
2023/08/03 09:03:01;;;;;;;3.03;1.50;;;;;;;16.47;55.46;98698.78;10308925;28;20266;-70
2023/08/03 09:08:05;;;;;;;2.70;1.83;;;;;;;16.28;55.28;98699.06;10306708;28;20234;-69
2023/08/03 09:13:07;;;;;;;4.00;1.87;;;;;;;16.61;55.60;98660.31;10307832;28;20691;-70
2023/08/03 09:18:08;;;;;;;2.63;1.80;;;;;;;16.18;56.15;98729.41;10308802;28;20226;-70
2023/08/03 09:23:26;;;;;;;2.17;1.90;;;;;;;16.05;56.23;98767.50;10307635;28;20945;-70
2023/08/03 09:28:48;;;;;;;3.27;1.90;;;;;;;16.85;55.20;98695.19;10307647;28;20731;-70
2023/08/03 09:33:58;;;;;;;4.50;1.90;;;;;;;16.98;55.29;98686.72;10308644;28;20257;-69
2023/08/03 09:39:10;;;;;;;4.33;1.97;;;;;;;16.11;56.85;98766.53;10300153;28;20320;-70
2023/08/03 09:44:16;;;;;;;4.20;1.63;;;;;;;16.74;55.66;98685.34;10315198;28;20308;-69
2023/08/03 09:49:18;;;;;;;3.90;1.60;;;;;;;16.31;55.93;98776.03;10310250;28;20234;-70
2023/08/03 09:54:39;;;;;;;3.40;1.70;;;;;;;16.55;56.17;98765.84;10310615;28;20234;-69
2023/08/03 09:59:46;;;;;;;5.43;2.27;;;;;;;17.25;55.57;98721.06;10313010;28;20655;-69
2023/08/03 10:04:54;;;;;;;2.03;1.73;;;;;;;17.98;54.40;98731.47;10315295;28;20270;-70
2023/08/03 10:09:59;;;;;;;3.00;1.87;;;;;;;17.71;54.40;98767.53;10313409;28;20234;-69
2023/08/03 10:15:02;;;;;;;1.93;1.70;;;;;;;17.21;55.36;98808.31;10314390;28;20322;-70
2023/08/03 10:20:07;;;;;;;2.53;1.90;;;;;;;17.96;53.94;98831.06;10318452;28;20786;-70
2023/08/03 10:25:19;;;;;;;1.50;1.40;;;;;;;17.33;55.01;98846.88;10315354;28;20230;-70
2023/08/03 10:30:21;;;;;;;2.27;1.73;;;;;;;17.74;53.76;98879.81;10312245;28;20234;-70
2023/08/03 10:35:38;;;;;;;3.67;1.70;;;;;;;17.28;55.33;98866.53;10315375;28;20317;-69
2023/08/03 10:40:40;;;;;;;3.13;1.90;;;;;;;17.70;53.42;98814.56;10309768;28;20229;-68
2023/08/03 10:45:41;;;;;;;3.37;1.60;;;;;;;17.59;52.91;98901.25;10313414;28;20892;-68
2023/08/03 10:51:03;;;;;;;3.23;1.43;;;;;;;18.62;51.78;98784.75;10313946;28;20236;-69
2023/08/03 10:56:07;;;;;;;2.37;1.67;;;;;;;17.93;52.68;98858.63;10313680;28;20233;-68
2023/08/03 11:06:21;;;;;;;2.43;1.50;;;;;;;15.64;58.33;98797.31;10405623;27;20852;-69
2023/08/03 11:11:27;;;;;;;2.93;1.80;;;;;;;16.18;57.16;98779.84;10359143;28;20332;-69
2023/08/03 11:16:30;;;;;;;3.03;1.70;;;;;;;16.87;55.99;98787.63;10383137;28;20233;-66
2023/08/03 11:21:34;;;;;;;1.53;1.40;;;;;;;16.27;56.49;98831.56;10381017;28;20240;-67
2023/08/03 11:26:37;;;;;;;1.60;1.50;;;;;;;17.03;56.19;98774.34;10384075;28;20829;-69
2023/08/03 11:31:39;;;;;;;2.77;1.70;;;;;;;16.53;56.78;98844.38;10382487;28;20344;-68
2023/08/03 11:36:47;;;;;;;1.40;1.40;;;;;;;16.94;57.30;98836.88;10381812;28;20328;-68
2023/08/03 11:41:52;;;;;;;2.03;1.30;;;;;;;16.38;57.20;98882.78;10385540;28;20245;-69
2023/08/03 11:47:03;;;;;;;3.30;1.50;;;;;;;17.17;55.68;98770.16;10364093;28;20669;-71
2023/08/03 11:52:05;;;;;;;1.90;1.40;;;;;;;16.12;57.59;98913.06;10359350;28;20613;-68
2023/08/03 12:02:38;;;;;;;1.87;1.40;;;;;;;17.30;55.22;98855.47;10378310;28;20263;-69
2023/08/03 12:07:40;;;;;;;1.27;1.17;;;;;;;16.96;54.74;98886.13;10352856;28;20299;-67
2023/08/03 12:12:43;;;;;;;1.37;1.20;;;;;;;17.54;53.69;98839.78;10365174;28;20238;-67
2023/08/03 12:17:50;;;;;;;1.50;1.08;;;;;;;17.53;54.11;98806.53;10347165;28;20746;-67
2023/08/03 12:22:52;;;;;;;1.77;1.17;;;;;;;17.58;53.37;98869.84;10348315;28;20246;-69
2023/08/03 12:27:53;;;;;;;2.08;1.33;;;;;;;16.76;56.44;98899.31;10345754;28;20335;-70
2023/08/03 12:32:55;;;;;;;1.33;1.23;;;;;;;16.95;56.08;98895.28;10326143;28;20236;-71
2023/08/03 12:37:57;;;;;;;1.95;1.25;;;;;;;18.05;54.86;98823.28;10316472;28;20244;-70
2023/08/03 12:42:59;;;;;;;1.88;1.30;;;;;;;18.19;54.01;98808.25;10313439;28;20325;-70
2023/08/03 12:48:01;;;;;;;1.98;1.30;;;;;;;17.41;53.64;98942.94;10314574;28;20811;-70
2023/08/03 12:53:17;;;;;;;1.25;1.17;;;;;;;18.27;52.36;98871.91;10318549;28;21118;-71
2023/08/03 12:58:19;;;;;;;1.40;1.30;;;;;;;17.22;52.68;98962.16;10314898;28;20234;-70
2023/08/03 13:03:21;;;;;;;1.33;1.23;;;;;;;18.49;51.48;98895.41;10316134;28;20304;-70
2023/08/03 13:08:23;;;;;;;1.08;0.90;;;;;;;18.38;52.02;98911.59;10316868;28;20688;-68
2023/08/03 13:13:25;;;;;;;1.25;1.10;;;;;;;18.26;52.00;98886.53;10317434;28;20304;-69
2023/08/03 13:18:27;;;;;;;3.05;1.30;;;;;;;18.21;51.72;98875.69;10313362;28;20304;-70
2023/08/03 13:23:29;;;;;;;1.33;1.23;;;;;;;18.32;51.27;98879.31;10313724;28;20241;-69
2023/08/03 13:28:31;;;;;;;1.20;0.90;;;;;;;18.94;50.64;98864.34;10312772;28;20903;-67
2023/08/03 13:33:32;;;;;;;1.27;1.17;;;;;;;18.54;51.27;98881.91;10315439;28;20717;-68
2023/08/03 13:38:35;;;;;;;2.53;1.27;;;;;;;18.22;51.72;98970.19;10339285;28;20336;-68
2023/08/03 13:43:40;;;;;;;2.20;1.15;;;;;;;18.97;49.66;98920.75;10341803;28;20290;-68
2023/08/03 13:48:42;;;;;;;1.35;1.20;;;;;;;19.19;49.33;98891.56;10347297;28;20637;-69
2023/08/03 13:53:44;;;;;;;1.50;1.10;;;;;;;18.50;50.51;98943.94;10340423;28;20283;-68
2023/08/03 13:58:55;;;;;;;2.00;1.55;;;;;;;18.57;50.51;98916.63;10342822;28;20240;-70
2023/08/03 14:03:58;;;;;;;3.63;1.48;;;;;;;18.58;49.45;98896.59;10335771;28;21083;-71
2023/08/03 14:09:00;;;;;;;1.65;1.30;;;;;;;17.65;49.69;98974.13;10340003;28;20234;-70
2023/08/03 14:14:07;;;;;;;2.22;1.50;;;;;;;19.18;49.78;98898.09;10341633;28;20267;-72
2023/08/03 14:19:29;;;;;;;2.92;1.40;;;;;;;19.06;49.73;98911.03;10342689;28;20229;-66
2023/08/03 14:24:31;;;;;;;3.03;1.77;;;;;;;18.48;49.90;98978.59;10349257;28;20325;-65
2023/08/03 14:29:32;;;;;;;2.35;1.30;;;;;;;18.75;49.30;98932.47;10348935;28;20617;-69
2023/08/03 14:34:34;;;;;;;2.10;1.60;;;;;;;20.50;48.64;98854.47;10353386;28;20312;-69
2023/08/03 14:39:39;;;;;;;2.90;1.10;;;;;;;19.56;49.43;98915.09;10347364;28;20704;-65
2023/08/03 14:44:40;;;;;;;3.08;1.15;;;;;;;19.40;49.65;98932.38;10349533;28;20241;-69
2023/08/03 14:49:42;;;;;;;2.08;1.40;;;;;;;19.33;49.33;98932.63;10353956;28;20816;-67
2023/08/03 14:55:06;;;;;;;1.85;1.20;;;;;;;19.65;49.36;98882.03;10353859;28;20323;-65
2023/08/03 15:00:10;;;;;;;1.00;1.00;;;;;;;19.22;49.28;98943.69;10350266;28;20261;-68
2023/08/03 15:05:12;;;;;;;2.80;1.40;;;;;;;18.83;49.59;98961.81;10345399;28;20240;-68
2023/08/03 15:10:14;;;;;;;1.55;1.45;;;;;;;19.82;47.88;98879.09;10348275;28;20605;-68
2023/08/03 15:15:16;;;;;;;1.33;1.00;;;;;;;19.01;49.01;98959.78;10352965;28;20261;-68
2023/08/03 15:20:31;;;;;;;1.90;1.27;;;;;;;18.45;53.64;98954.72;10353248;28;20233;-69
2023/08/03 15:25:38;;;;;;;2.92;1.38;;;;;;;19.35;53.66;98846.38;10350188;28;20318;-68
2023/08/03 15:30:49;;;;;;;1.33;1.20;;;;;;;19.78;53.93;98821.81;10345649;28;20241;-66
2023/08/03 15:35:54;;;;;;;1.33;1.20;;;;;;;19.53;53.26;98866.75;10344523;28;20333;-71
2023/08/03 15:40:57;;;;;;;2.47;1.48;;;;;;;19.66;53.40;98862.75;10351511;28;20311;-70
2023/08/03 15:46:04;;;;;;;1.58;1.15;;;;;;;18.79;53.51;98930.06;10350971;28;20597;-70
2023/08/03 15:51:13;;;;;;;0.90;0.90;;;;;;;19.45;52.34;98882.75;10347266;28;20230;-66
2023/08/03 15:56:19;;;;;;;1.85;0.93;;;;;;;19.54;51.00;98875.72;10355537;28;20233;-67
2023/08/03 16:01:21;;;;;;;2.47;1.30;;;;;;;18.40;52.40;98987.97;10358015;28;20234;-66
2023/08/03 16:06:23;;;;;;;0.90;0.90;;;;;;;16.33;55.53;98982.59;10354489;28;20239;-68
2023/08/03 16:11:25;;;;;;;1.25;1.02;;;;;;;17.36;53.32;98947.22;10347513;28;21059;-69
2023/08/03 16:16:47;;;;;;;1.30;1.20;;;;;;;17.90;53.79;98908.69;10354397;28;20233;-68
2023/08/03 16:21:50;;;;;;;2.10;1.20;;;;;;;17.44;55.46;98939.75;10355347;28;20268;-67
2023/08/03 16:26:52;;;;;;;1.83;1.38;;;;;;;17.15;55.20;98919.06;10357155;28;20236;-69
2023/08/03 16:31:53;;;;;;;2.13;1.27;;;;;;;17.45;54.63;98931.38;10354813;28;20233;-68
2023/08/03 16:36:55;;;;;;;2.60;1.47;;;;;;;18.50;53.05;98902.47;10354010;28;20221;-69
2023/08/03 16:41:57;;;;;;;1.63;1.23;;;;;;;18.70;53.51;98943.28;10352729;28;20295;-68
2023/08/03 16:46:59;;;;;;;3.43;1.20;;;;;;;18.18;53.88;98943.88;10354694;28;22285;-68
2023/08/03 16:52:00;;;;;;;2.07;1.30;;;;;;;18.19;54.38;98918.44;10354830;28;20661;-67
2023/08/03 16:57:02;;;;;;;2.35;1.40;;;;;;;18.67;52.85;98927.53;10354522;28;20797;-67
2023/08/03 17:02:04;;;;;;;2.08;1.30;;;;;;;18.77;52.70;98964.75;10351844;28;20715;-66
2023/08/03 17:07:07;;;;;;;2.28;1.20;;;;;;;19.13;52.37;98946.88;10352796;28;20667;-67
2023/08/03 17:12:09;;;;;;;1.65;1.40;;;;;;;18.80;52.59;98992.13;10356241;28;20311;-67
2023/08/03 17:17:11;;;;;;;1.77;1.27;;;;;;;19.46;52.03;98923.16;10356090;28;20225;-66
2023/08/03 17:22:13;;;;;;;2.40;1.50;;;;;;;19.07;52.12;98963.38;10345269;28;20233;-66
2023/08/03 17:27:15;;;;;;;2.38;1.15;;;;;;;18.48;53.16;99021.94;10353494;28;20384;-67
2023/08/03 17:32:16;;;;;;;1.45;1.23;;;;;;;18.81;52.12;98990.25;10353374;28;20235;-65
2023/08/03 17:37:18;;;;;;;1.90;1.30;;;;;;;19.30;52.10;98943.16;10354253;28;20320;-68
2023/08/03 17:42:20;;;;;;;2.15;1.38;;;;;;;19.77;51.02;98923.31;10346509;28;20241;-67
2023/08/03 17:47:21;;;;;;;3.03;1.50;;;;;;;19.11;52.53;98978.84;10355800;28;20611;-67
2023/08/03 17:52:23;;;;;;;2.30;1.20;;;;;;;18.88;53.23;98980.00;10350290;28;20283;-68
2023/08/03 17:57:25;;;;;;;2.30;1.20;;;;;;;18.02;54.68;99005.97;10346797;28;20287;-68
2023/08/03 18:02:29;;;;;;;1.50;1.30;;;;;;;17.81;54.95;98985.13;10355928;28;20724;-68
2023/08/03 18:07:31;;;;;;;2.83;1.63;;;;;;;18.64;53.33;98958.69;10352548;28;20619;-68
2023/08/03 18:12:33;;;;;;;1.40;1.30;;;;;;;18.04;54.86;98973.25;10348628;28;20795;-68
2023/08/03 18:17:35;;;;;;;3.63;1.55;;;;;;;18.48;53.72;98996.75;10351876;28;20233;-69
2023/08/03 18:22:37;;;;;;;1.47;1.37;;;;;;;17.39;55.25;99081.09;10337518;28;20274;-69
2023/08/03 18:27:39;;;;;;;2.30;1.40;;;;;;;17.38;54.72;99073.22;10344435;28;20225;-71
2023/08/03 18:32:40;;;;;;;1.38;1.23;;;;;;;17.36;54.98;99052.69;10342989;28;21448;-69
2023/08/03 18:37:42;;;;;;;1.30;1.20;;;;;;;17.80;53.90;99030.34;10348465;28;20922;-66
2023/08/03 18:42:44;;;;;;;3.23;1.33;;;;;;;17.65;54.21;99028.25;10347425;28;20287;-64
2023/08/03 18:47:45;;;;;;;4.43;1.70;;;;;;;16.36;56.45;99095.47;10342704;28;20421;-67
2023/08/03 18:52:47;;;;;;;1.63;1.50;;;;;;;17.17;56.24;98964.78;10344621;28;20637;-72
2023/08/03 18:57:49;;;;;;;2.60;1.30;;;;;;;16.00;57.16;99104.69;10344567;28;21033;-67
2023/08/03 19:02:51;;;;;;;2.83;1.60;;;;;;;16.41;58.46;98970.56;10349303;28;20751;-67
2023/08/03 19:07:54;;;;;;;1.20;1.10;;;;;;;16.27;57.52;99040.22;10347986;28;20236;-67
2023/08/03 19:12:55;;;;;;;3.53;1.50;;;;;;;17.41;56.25;98997.88;10348522;28;20233;-67
2023/08/03 19:17:58;;;;;;;3.20;1.90;;;;;;;17.12;56.70;98994.44;10351823;28;20232;-67
2023/08/03 19:23:02;;;;;;;3.23;1.70;;;;;;;16.91;56.75;99037.34;10340643;28;20225;-71
2023/08/03 19:28:04;;;;;;;3.13;1.80;;;;;;;18.01;55.55;98958.31;10362233;28;20237;-71
2023/08/03 19:33:08;;;;;;;2.13;1.60;;;;;;;16.56;57.75;99078.84;10352666;28;20227;-66
2023/08/03 19:38:11;;;;;;;2.07;1.60;;;;;;;16.64;57.98;99064.16;10353665;28;20229;-68
2023/08/03 19:43:14;;;;;;;2.40;1.60;;;;;;;18.61;53.87;99004.44;10342460;28;20280;-68
2023/08/03 19:48:16;;;;;;;2.77;1.80;;;;;;;18.27;54.60;99015.44;10343609;28;20324;-68
2023/08/03 19:53:20;;;;;;;2.67;1.67;;;;;;;17.58;55.52;99086.25;10357035;28;20225;-67
2023/08/03 19:58:25;;;;;;;1.97;1.73;;;;;;;17.51;55.71;99078.31;10352594;28;20225;-67
2023/08/03 20:03:46;;;;;;;3.63;1.80;;;;;;;17.87;54.77;99065.31;10342198;28;20634;-65
2023/08/03 20:08:51;;;;;;;1.87;1.67;;;;;;;17.12;55.80;99145.81;10342733;28;20317;-66
2023/08/03 20:13:53;;;;;;;2.20;1.50;;;;;;;17.52;55.82;99045.59;10308406;28;20249;-68
2023/08/03 20:18:57;;;;;;;2.27;1.67;;;;;;;17.45;55.72;99080.13;10342068;28;20234;-65
2023/08/03 20:24:01;;;;;;;2.20;1.50;;;;;;;17.02;56.44;99127.53;10340750;28;20256;-67
2023/08/03 20:29:03;;;;;;;1.77;1.50;;;;;;;17.47;55.33;99094.22;10360652;28;20815;-66
2023/08/03 20:34:06;;;;;;;2.33;1.60;;;;;;;17.06;56.13;99117.06;10352882;28;20229;-67
2023/08/03 20:39:11;;;;;;;1.67;1.47;;;;;;;16.93;56.17;99137.88;10354347;28;20255;-67
2023/08/03 20:44:15;;;;;;;2.10;1.40;;;;;;;17.99;54.19;99078.75;10341574;28;20287;-67
2023/08/03 20:49:17;;;;;;;1.63;1.50;;;;;;;17.57;54.71;99101.66;10347951;28;20225;-67
2023/08/03 20:54:19;;;;;;;4.47;1.53;;;;;;;17.17;56.04;99089.97;10347706;28;20236;-68
2023/08/03 20:59:23;;;;;;;3.00;1.70;;;;;;;17.51;55.17;99099.94;10355357;28;20225;-65
2023/08/03 21:04:25;;;;;;;1.50;1.40;;;;;;;17.07;55.08;99154.66;10352866;28;20253;-66
2023/08/03 21:09:27;;;;;;;1.37;1.37;;;;;;;16.78;56.05;99113.28;10341782;28;20206;-68
2023/08/03 21:14:30;;;;;;;1.50;1.40;;;;;;;17.17;55.24;99091.84;10341960;28;20656;-68
2023/08/03 21:19:31;;;;;;;1.53;1.43;;;;;;;17.12;55.03;99135.00;10349439;28;20213;-67
2023/08/03 21:24:33;;;;;;;1.50;1.40;;;;;;;18.42;52.04;99085.22;10348645;28;21050;-68
2023/08/03 21:29:35;;;;;;;1.60;1.50;;;;;;;17.60;53.30;99179.63;10348698;28;20251;-67
2023/08/03 21:34:36;;;;;;;3.20;2.10;;;;;;;17.03;54.69;99164.31;10351307;28;20583;-68
2023/08/03 21:39:38;;;;;;;1.60;1.50;;;;;;;15.93;56.98;99211.94;10342196;28;20226;-69
2023/08/03 21:44:40;;;;;;;2.10;1.70;;;;;;;16.63;55.50;99175.94;10342409;28;20291;-71
2023/08/03 21:49:42;;;;;;;1.43;1.20;;;;;;;17.50;54.08;99107.25;10318436;28;20982;-69
2023/08/03 21:54:43;;;;;;;1.77;1.50;;;;;;;16.89;55.22;99141.34;10350107;28;20245;-66
2023/08/03 21:59:45;;;;;;;1.57;1.47;;;;;;;16.37;56.16;99161.13;10356169;28;20280;-65
2023/08/03 22:04:47;;;;;;;1.80;1.70;;;;;;;16.76;55.21;99162.16;10353612;28;20261;-65
2023/08/03 22:09:48;;;;;;;4.00;1.60;;;;;;;16.95;54.53;99178.22;10349995;28;20229;-68
2023/08/03 22:14:50;;;;;;;1.80;1.70;;;;;;;17.88;52.62;99143.56;10347594;28;21299;-66
2023/08/03 22:19:52;;;;;;;1.50;1.40;;;;;;;18.65;51.51;99116.66;10308008;28;20233;-67
2023/08/03 22:24:53;;;;;;;1.67;1.40;;;;;;;18.74;51.06;99169.34;10307643;28;20238;-69
2023/08/03 22:29:57;;;;;;;2.63;1.63;;;;;;;18.63;50.95;99205.50;10312992;28;20222;-68
2023/08/03 22:34:59;;;;;;;2.10;1.90;;;;;;;18.71;50.83;99228.63;10344189;28;20248;-68
2023/08/03 22:40:02;;;;;;;1.97;1.70;;;;;;;17.81;51.70;99290.91;10341890;28;20315;-68
2023/08/03 22:45:05;;;;;;;1.50;1.40;;;;;;;17.27;53.22;99265.03;10340883;28;20237;-67
2023/08/03 22:50:06;;;;;;;1.87;1.60;;;;;;;17.16;53.29;99282.16;10315136;28;20283;-67
2023/08/03 22:55:08;;;;;;;1.50;1.40;;;;;;;16.45;55.15;99239.06;10347777;28;20244;-68
2023/08/03 23:00:10;;;;;;;1.43;1.30;;;;;;;17.27;53.80;99220.97;10354175;28;20838;-70
2023/08/03 23:05:12;;;;;;;1.60;1.50;;;;;;;17.24;53.56;99229.56;10348751;28;20237;-69
2023/08/03 23:10:14;;;;;;;3.13;1.73;;;;;;;16.96;54.02;99242.03;10351755;28;20245;-68
2023/08/03 23:15:16;;;;;;;2.87;1.30;;;;;;;16.72;54.95;99212.34;10353436;28;20324;-68
2023/08/03 23:20:17;;;;;;;2.40;1.73;;;;;;;16.90;54.37;99238.34;10353694;28;20237;-68
2023/08/03 23:25:19;;;;;;;3.37;1.70;;;;;;;16.79;54.56;99253.53;10341553;28;20229;-68
2023/08/03 23:30:21;;;;;;;1.87;1.60;;;;;;;16.88;54.97;99213.44;10310298;28;20659;-68
2023/08/03 23:35:23;;;;;;;1.60;1.50;;;;;;;17.55;53.70;99174.13;10320629;28;20250;-68
2023/08/03 23:40:24;;;;;;;3.03;1.60;;;;;;;17.65;53.67;99185.16;10354133;28;20754;-68
2023/08/03 23:45:26;;;;;;;3.13;1.90;;;;;;;16.91;54.15;99287.81;10347664;28;20229;-68